Portada
METAR-TAF:

METAR-TAF

Aeroports :

San Antonio del Táchira, Veneçuela

latitud: 07-51N, longitud: 072-27W, altitud: 377 m

METAR: manca

Hora: 06:34 (10:34 UTC)

Pronòstic

L'informe es va fer fa 12 hores i 34 minuts, a les 22:00 UTC
Pronòstic vàlid del 09 a les 00 UTC al 10 a les 00 UTC
Vent 3 kt del Sud
Visibilitat 10 km o més
Núvols disperses a una alçada de 1600 ft
Evolucionant progressivament
l' 08 a les 11 UTC al 09 a les 15 UTC
Vent 3 kt del Sud/Sud-Est
Visibilitat: 9000 m
Núvols disperses a una alçada de 2000 ft
plugim

TAF: SVSA 082200Z 0900/1000 18003KT 9999 SCT016 TX31/0819Z TN19/0808Z BECMG 0811/0915 16003KT 9000 -DZ SCT020

Observacions i pronòstics meteorològics de més de 4000 aeroports (METAR i TAF).

Les estacions disponibles són els punts grocs i vermells al mapa.

Posi el ratolí al punt desitjat per veure el nom de l'estació.

Feu clic per veure les observacions i els pronòstics meteorològics.

Per canviar el mapa: feu clic els botons verds amb una creu de color negre per apropar; al botó verd amb un guió per allunyar la imatge; o en les fletxes verdes per a mapes adjacents.


METAR-TAF: